Time;durP1;ratioP1;P1;durP2;ratioP2;P2;SDS_P1;SDS_P2;PMS_P1;PMS_P2;Temp;Humidity;BMP_temperature;BMP_pressure;BME280_temperature;BME280_humidity;BME280_pressure;Samples;Min_cycle;Max_cycle;Signal;HPM_P1;HPM_P2
2021/08/07 00:00:59;;;;;;;2.13;0.55;;;;;;;;;;5006799;28;20111;-80
2021/08/07 00:03:25;;;;;;;0.80;0.40;;;;;;;;;;4993153;28;20041;-80
2021/08/07 00:05:50;;;;;;;2.03;0.70;;;;;;;;;;4977939;28;20091;-79
2021/08/07 00:08:16;;;;;;;2.90;0.60;;;;;;;;;;4994157;28;20054;-79
2021/08/07 00:10:41;;;;;;;1.10;0.45;;;;;;;;;;4990312;28;20065;-80
2021/08/07 00:13:07;;;;;;;1.90;0.52;;;;;;;;;;5006845;28;20385;-79
2021/08/07 00:15:32;;;;;;;0.90;0.40;;;;;;;;;;4993822;28;20038;-80
2021/08/07 00:17:58;;;;;;;2.38;0.50;;;;;;;;;;4977517;28;20034;-79
2021/08/07 00:20:26;;;;;;;1.13;0.68;;;;;;;;;;4992910;28;20069;-80
2021/08/07 00:22:51;;;;;;;2.03;0.75;;;;;;;;;;4997180;28;20634;-80
2021/08/07 00:25:17;;;;;;;1.52;0.50;;;;;;;;;;4997309;28;20053;-80
2021/08/07 00:27:43;;;;;;;2.25;0.80;;;;;;;;;;4997706;28;20042;-79
2021/08/07 00:30:09;;;;;;;1.80;0.50;;;;;;;;;;4997291;28;20121;-79
2021/08/07 00:32:34;;;;;;;1.58;0.68;;;;;;;;;;4981069;28;20129;-80
2021/08/07 00:35:00;;;;;;;1.08;0.50;;;;;;;;;;4994039;28;20109;-80
2021/08/07 00:37:25;;;;;;;3.65;0.80;;;;;;;;;;5011233;28;20519;-79
2021/08/07 00:39:51;;;;;;;1.30;0.50;;;;;;;;;;4997252;28;20069;-79
2021/08/07 00:42:16;;;;;;;1.48;0.65;;;;;;;;;;4977547;28;20074;-79
2021/08/07 00:44:42;;;;;;;1.63;0.75;;;;;;;;;;4972310;28;20079;-79
2021/08/07 00:47:07;;;;;;;1.52;0.50;;;;;;;;;;4994207;28;20037;-79
2021/08/07 00:49:33;;;;;;;1.27;0.55;;;;;;;;;;5011810;28;20120;-79
2021/08/07 00:52:01;;;;;;;1.80;0.50;;;;;;;;;;4995258;28;20037;-82
2021/08/07 00:54:27;;;;;;;1.58;0.70;;;;;;;;;;5004590;28;20040;-79
2021/08/07 00:56:52;;;;;;;1.40;0.65;;;;;;;;;;5017171;28;20041;-80
2021/08/07 00:59:20;;;;;;;1.15;0.40;;;;;;;;;;4979139;28;20444;-81
2021/08/07 01:01:53;;;;;;;1.30;0.40;;;;;;;;;;4977551;28;20061;-80
2021/08/07 01:04:20;;;;;;;1.88;0.60;;;;;;;;;;4980362;28;20027;-81
2021/08/07 01:06:54;;;;;;;1.55;0.55;;;;;;;;;;4979766;28;20052;-81
2021/08/07 01:09:34;;;;;;;2.83;0.68;;;;;;;;;;4996318;28;20053;-81
2021/08/07 01:12:05;;;;;;;2.30;0.88;;;;;;;;;;4980382;28;20034;-80
2021/08/07 01:14:35;;;;;;;1.27;0.40;;;;;;;;;;4980328;28;20041;-81
2021/08/07 01:17:00;;;;;;;1.88;0.40;;;;;;;;;;4980877;28;20049;-81
2021/08/07 01:19:28;;;;;;;1.15;0.30;;;;;;;;;;4995592;28;20049;-80
2021/08/07 01:21:56;;;;;;;1.95;0.95;;;;;;;;;;4996298;28;20084;-81
2021/08/07 01:24:28;;;;;;;1.48;0.50;;;;;;;;;;4996405;28;20053;-80
2021/08/07 01:27:06;;;;;;;3.50;0.70;;;;;;;;;;4996877;28;20034;-81
2021/08/07 01:29:32;;;;;;;1.60;0.38;;;;;;;;;;5012280;28;20692;-80
2021/08/07 01:31:57;;;;;;;1.30;0.50;;;;;;;;;;4979542;28;20030;-80
2021/08/07 01:34:23;;;;;;;2.45;0.65;;;;;;;;;;4978768;28;20069;-81
2021/08/07 01:36:48;;;;;;;2.15;1.13;;;;;;;;;;4992397;28;20033;-80
2021/08/07 01:39:14;;;;;;;1.40;0.55;;;;;;;;;;4998752;28;20044;-80
2021/08/07 01:41:39;;;;;;;0.95;0.40;;;;;;;;;;5012864;28;20118;-81
2021/08/07 01:44:05;;;;;;;1.27;0.47;;;;;;;;;;4992806;28;20030;-81
2021/08/07 01:46:58;;;;;;;1.38;0.40;;;;;;;;;;4992946;28;20072;-81
2021/08/07 01:49:29;;;;;;;1.50;0.40;;;;;;;;;;4971928;28;20050;-81
2021/08/07 01:51:57;;;;;;;1.10;0.45;;;;;;;;;;4996097;28;20073;-81
2021/08/07 01:54:30;;;;;;;1.63;0.57;;;;;;;;;;4995343;28;20041;-81
2021/08/07 01:56:55;;;;;;;1.73;0.60;;;;;;;;;;4979708;28;20121;-81
2021/08/07 01:59:21;;;;;;;1.40;0.47;;;;;;;;;;4995520;28;20108;-81
2021/08/07 02:01:47;;;;;;;3.10;0.80;;;;;;;;;;4995695;28;20045;-81
2021/08/07 02:04:13;;;;;;;4.10;0.60;;;;;;;;;;4977953;28;20066;-82
2021/08/07 02:06:39;;;;;;;1.60;0.77;;;;;;;;;;4973431;28;20508;-81
2021/08/07 02:09:04;;;;;;;2.15;0.60;;;;;;;;;;4995450;28;20072;-81
2021/08/07 02:11:32;;;;;;;1.48;0.68;;;;;;;;;;4995432;28;20513;-81
2021/08/07 02:13:57;;;;;;;1.02;0.50;;;;;;;;;;4979450;28;20129;-81
2021/08/07 02:16:22;;;;;;;1.33;0.52;;;;;;;;;;4978823;28;20455;-81
2021/08/07 02:18:48;;;;;;;1.02;0.40;;;;;;;;;;4994325;28;20042;-82
2021/08/07 02:21:14;;;;;;;1.20;0.65;;;;;;;;;;4995101;28;20038;-81
2021/08/07 02:23:40;;;;;;;1.13;0.50;;;;;;;;;;4995492;28;20034;-81
2021/08/07 02:26:06;;;;;;;1.50;0.50;;;;;;;;;;4995294;28;20562;-81
2021/08/07 02:28:31;;;;;;;1.83;0.47;;;;;;;;;;4995184;28;20095;-81
2021/08/07 02:30:58;;;;;;;1.48;0.60;;;;;;;;;;4978847;28;20041;-80
2021/08/07 02:33:23;;;;;;;1.40;0.47;;;;;;;;;;4978175;28;20030;-81
2021/08/07 02:35:50;;;;;;;1.27;0.40;;;;;;;;;;4991784;28;20057;-81
2021/08/07 02:38:16;;;;;;;1.33;0.50;;;;;;;;;;5005803;28;20452;-81
2021/08/07 02:40:42;;;;;;;3.33;0.70;;;;;;;;;;4995044;28;20108;-81
2021/08/07 02:43:07;;;;;;;1.70;0.55;;;;;;;;;;4978633;28;20048;-81
2021/08/07 02:45:33;;;;;;;1.05;0.65;;;;;;;;;;5009785;28;20037;-81
2021/08/07 02:47:58;;;;;;;1.55;0.75;;;;;;;;;;4991931;28;20042;-80
2021/08/07 02:50:24;;;;;;;1.90;0.47;;;;;;;;;;4994297;28;20044;-81
2021/08/07 02:52:49;;;;;;;3.45;0.70;;;;;;;;;;4994750;28;20045;-81
2021/08/07 02:55:15;;;;;;;1.55;0.60;;;;;;;;;;4978272;28;20034;-81
2021/08/07 02:57:40;;;;;;;1.60;0.55;;;;;;;;;;4994258;28;20042;-81
2021/08/07 03:00:06;;;;;;;2.33;0.80;;;;;;;;;;4994404;28;20046;-81
2021/08/07 03:02:31;;;;;;;1.20;0.50;;;;;;;;;;4977807;28;20065;-81
2021/08/07 03:04:57;;;;;;;2.03;0.80;;;;;;;;;;4978621;28;20124;-80
2021/08/07 03:07:22;;;;;;;1.95;0.77;;;;;;;;;;4990862;28;20039;-81
2021/08/07 03:09:48;;;;;;;2.05;0.60;;;;;;;;;;4977841;28;20041;-81
2021/08/07 03:12:15;;;;;;;1.13;0.52;;;;;;;;;;4978232;28;20057;-81
2021/08/07 03:14:40;;;;;;;1.60;0.50;;;;;;;;;;4994265;28;20041;-81
2021/08/07 03:17:06;;;;;;;1.33;0.55;;;;;;;;;;4994102;28;20074;-81
2021/08/07 03:19:31;;;;;;;3.15;0.65;;;;;;;;;;4977552;28;20038;-81
2021/08/07 03:21:57;;;;;;;2.03;0.40;;;;;;;;;;4978153;28;20053;-81
2021/08/07 03:24:22;;;;;;;1.45;0.45;;;;;;;;;;4994164;28;20025;-81
2021/08/07 03:26:48;;;;;;;2.45;0.77;;;;;;;;;;4993842;28;20034;-81
2021/08/07 03:29:14;;;;;;;1.67;0.52;;;;;;;;;;4994339;28;20404;-81
2021/08/07 03:31:39;;;;;;;1.27;0.60;;;;;;;;;;4993737;28;20037;-81
2021/08/07 03:34:05;;;;;;;1.42;0.60;;;;;;;;;;4993979;28;20435;-81
2021/08/07 03:36:31;;;;;;;1.27;0.40;;;;;;;;;;4993983;28;20042;-81
2021/08/07 03:38:56;;;;;;;1.10;0.45;;;;;;;;;;4977861;28;20048;-81
2021/08/07 03:41:24;;;;;;;2.80;1.27;;;;;;;;;;4977833;28;20133;-81
2021/08/07 03:43:50;;;;;;;1.75;0.50;;;;;;;;;;4994120;28;20408;-80
2021/08/07 03:46:15;;;;;;;2.13;0.60;;;;;;;;;;4993636;28;20038;-81
2021/08/07 03:48:41;;;;;;;1.45;0.50;;;;;;;;;;4977237;28;20079;-81
2021/08/07 03:51:06;;;;;;;2.72;0.65;;;;;;;;;;4977942;28;20045;-81
2021/08/07 03:53:32;;;;;;;1.60;0.80;;;;;;;;;;4993797;28;20076;-81
2021/08/07 03:55:57;;;;;;;1.45;0.47;;;;;;;;;;4993680;28;20043;-81
2021/08/07 03:58:23;;;;;;;2.53;0.50;;;;;;;;;;4978098;28;20057;-81
2021/08/07 04:00:48;;;;;;;3.53;1.17;;;;;;;;;;4975686;28;20125;-80
2021/08/07 04:03:14;;;;;;;2.83;0.65;;;;;;;;;;4997452;28;20038;-81
2021/08/07 04:05:39;;;;;;;2.53;0.60;;;;;;;;;;4981564;28;20081;-81
2021/08/07 04:08:08;;;;;;;1.33;0.70;;;;;;;;;;4997530;28;20034;-81
2021/08/07 04:10:34;;;;;;;2.55;0.57;;;;;;;;;;4998159;28;20037;-81
2021/08/07 04:12:59;;;;;;;2.55;0.50;;;;;;;;;;4997720;28;20109;-81
2021/08/07 04:15:25;;;;;;;2.92;1.00;;;;;;;;;;4977951;28;20030;-81
2021/08/07 04:17:50;;;;;;;1.65;0.60;;;;;;;;;;4978919;28;20046;-81
2021/08/07 04:20:16;;;;;;;1.67;0.70;;;;;;;;;;5012881;28;20046;-81
2021/08/07 04:22:41;;;;;;;2.55;0.75;;;;;;;;;;4981278;28;20034;-81
2021/08/07 04:25:07;;;;;;;3.08;0.80;;;;;;;;;;4997374;28;20050;-81
2021/08/07 04:27:33;;;;;;;2.05;0.47;;;;;;;;;;4981012;28;20041;-81
2021/08/07 04:29:58;;;;;;;1.95;0.65;;;;;;;;;;4996884;28;20065;-81
2021/08/07 04:32:24;;;;;;;3.67;1.20;;;;;;;;;;4997395;28;20156;-81
2021/08/07 04:34:49;;;;;;;1.63;0.70;;;;;;;;;;4997063;28;20044;-80
2021/08/07 04:37:15;;;;;;;3.00;0.80;;;;;;;;;;4996728;28;20416;-81
2021/08/07 04:39:40;;;;;;;1.85;0.65;;;;;;;;;;4997349;28;20046;-80
2021/08/07 04:42:06;;;;;;;2.15;0.60;;;;;;;;;;4997065;28;20100;-80
2021/08/07 04:44:31;;;;;;;2.30;0.77;;;;;;;;;;4996781;28;20041;-81
2021/08/07 04:46:56;;;;;;;2.53;0.75;;;;;;;;;;4995837;28;20045;-81
2021/08/07 04:49:22;;;;;;;1.85;0.63;;;;;;;;;;4995858;28;20057;-80
2021/08/07 04:51:47;;;;;;;1.60;0.80;;;;;;;;;;4996977;28;20057;-81
2021/08/07 04:54:13;;;;;;;1.35;0.50;;;;;;;;;;4980399;28;20033;-81
2021/08/07 04:56:38;;;;;;;2.25;0.65;;;;;;;;;;4996808;28;20045;-81
2021/08/07 04:59:04;;;;;;;1.67;0.47;;;;;;;;;;4996481;28;20061;-81
2021/08/07 05:01:30;;;;;;;1.98;0.40;;;;;;;;;;4997067;28;20049;-81
2021/08/07 05:03:55;;;;;;;2.65;0.63;;;;;;;;;;4996785;28;20113;-81
2021/08/07 05:06:21;;;;;;;1.65;0.73;;;;;;;;;;4996505;28;20038;-81
2021/08/07 05:08:46;;;;;;;1.42;0.52;;;;;;;;;;4992207;28;20447;-80
2021/08/07 05:11:12;;;;;;;2.15;0.90;;;;;;;;;;5009705;28;20050;-81
2021/08/07 05:13:37;;;;;;;2.00;0.60;;;;;;;;;;4996500;28;20412;-81
2021/08/07 05:16:03;;;;;;;2.97;0.80;;;;;;;;;;4996729;28;20033;-81
2021/08/07 05:18:28;;;;;;;2.28;0.88;;;;;;;;;;4979769;28;20069;-81
2021/08/07 05:20:54;;;;;;;1.90;0.63;;;;;;;;;;4980331;28;20084;-81
2021/08/07 05:23:20;;;;;;;1.50;0.60;;;;;;;;;;4996337;28;20439;-80
2021/08/07 05:25:46;;;;;;;1.85;0.50;;;;;;;;;;4996542;28;20053;-80
2021/08/07 05:28:11;;;;;;;1.40;0.50;;;;;;;;;;4980022;28;20068;-80
2021/08/07 05:30:37;;;;;;;1.30;0.60;;;;;;;;;;4979295;28;20046;-81
2021/08/07 05:33:02;;;;;;;2.65;0.90;;;;;;;;;;4980160;28;20557;-80
2021/08/07 05:35:28;;;;;;;1.45;0.70;;;;;;;;;;4979954;28;20050;-80
2021/08/07 05:37:53;;;;;;;1.60;0.70;;;;;;;;;;4996397;28;20052;-80
2021/08/07 05:40:19;;;;;;;2.55;0.77;;;;;;;;;;4996110;28;20042;-80
2021/08/07 05:42:45;;;;;;;4.32;0.75;;;;;;;;;;4995614;28;20045;-80
2021/08/07 05:45:11;;;;;;;2.00;0.70;;;;;;;;;;4996353;28;20029;-81
2021/08/07 05:47:36;;;;;;;1.63;0.60;;;;;;;;;;4990895;28;20043;-81
2021/08/07 05:50:02;;;;;;;2.03;0.95;;;;;;;;;;4995654;28;20516;-80
2021/08/07 05:52:28;;;;;;;2.65;0.93;;;;;;;;;;4979817;28;20512;-80
2021/08/07 05:54:54;;;;;;;1.60;0.82;;;;;;;;;;4995339;28;20129;-81
2021/08/07 05:57:19;;;;;;;3.22;0.60;;;;;;;;;;4981008;28;20049;-80
2021/08/07 05:59:45;;;;;;;1.88;0.50;;;;;;;;;;5009494;28;20046;-80
2021/08/07 06:02:10;;;;;;;1.95;0.77;;;;;;;;;;4995738;28;20076;-80
2021/08/07 06:04:36;;;;;;;2.80;0.80;;;;;;;;;;4995116;28;20129;-80
2021/08/07 06:07:01;;;;;;;3.17;0.75;;;;;;;;;;4995553;28;20037;-80
2021/08/07 06:09:27;;;;;;;2.15;0.93;;;;;;;;;;4979139;28;20052;-80
2021/08/07 06:11:52;;;;;;;2.00;0.60;;;;;;;;;;5011453;28;20038;-80
2021/08/07 06:14:18;;;;;;;1.38;0.43;;;;;;;;;;4995535;28;20033;-80
2021/08/07 06:16:43;;;;;;;3.17;1.15;;;;;;;;;;4979008;28;20042;-81
2021/08/07 06:19:09;;;;;;;2.20;0.50;;;;;;;;;;4994479;28;20389;-81
2021/08/07 06:21:34;;;;;;;1.50;0.70;;;;;;;;;;4963609;28;20023;-80
2021/08/07 06:24:00;;;;;;;2.42;0.60;;;;;;;;;;4995406;28;20030;-80
2021/08/07 06:26:26;;;;;;;1.65;0.63;;;;;;;;;;4995094;28;20030;-80
2021/08/07 06:28:52;;;;;;;2.13;0.60;;;;;;;;;;4995291;28;20038;-80
2021/08/07 06:31:17;;;;;;;2.88;0.60;;;;;;;;;;4992778;28;20121;-81
2021/08/07 06:33:43;;;;;;;1.77;0.70;;;;;;;;;;4992206;28;20030;-80
2021/08/07 06:36:08;;;;;;;2.33;0.70;;;;;;;;;;4977726;28;20091;-80
2021/08/07 06:38:34;;;;;;;1.85;0.80;;;;;;;;;;4991947;28;20039;-81
2021/08/07 06:40:59;;;;;;;2.55;0.50;;;;;;;;;;4975980;28;20030;-81
2021/08/07 06:43:25;;;;;;;2.63;0.75;;;;;;;;;;4987923;28;20097;-80
2021/08/07 06:45:50;;;;;;;1.77;0.65;;;;;;;;;;4978937;28;20040;-80
2021/08/07 06:48:16;;;;;;;2.78;0.80;;;;;;;;;;4977699;28;20041;-80
2021/08/07 06:50:41;;;;;;;3.15;0.50;;;;;;;;;;4995124;28;20492;-80
2021/08/07 06:53:07;;;;;;;2.83;1.27;;;;;;;;;;4991583;28;20104;-81
2021/08/07 06:55:32;;;;;;;2.60;0.60;;;;;;;;;;4991770;28;20030;-81
2021/08/07 06:57:58;;;;;;;3.67;1.27;;;;;;;;;;5011482;28;20046;-80
2021/08/07 07:00:23;;;;;;;2.78;0.70;;;;;;;;;;4995594;28;20045;-80
2021/08/07 07:02:49;;;;;;;2.72;0.57;;;;;;;;;;4985873;28;20045;-81
2021/08/07 07:05:14;;;;;;;3.13;0.60;;;;;;;;;;5009559;28;20053;-80
2021/08/07 07:07:40;;;;;;;3.47;0.60;;;;;;;;;;4994370;28;20128;-81
2021/08/07 07:10:09;;;;;;;3.53;0.73;;;;;;;;;;4978329;28;20076;-81
2021/08/07 07:12:35;;;;;;;1.83;0.68;;;;;;;;;;5005129;28;20124;-81
2021/08/07 07:15:01;;;;;;;3.60;0.98;;;;;;;;;;4995116;28;20030;-81
2021/08/07 07:17:28;;;;;;;2.85;0.73;;;;;;;;;;4977859;28;20149;-81
2021/08/07 07:19:54;;;;;;;2.60;0.80;;;;;;;;;;4977809;28;20468;-80
2021/08/07 07:22:20;;;;;;;1.92;0.80;;;;;;;;;;4961304;28;20038;-80
2021/08/07 07:24:46;;;;;;;2.80;0.60;;;;;;;;;;4994485;28;20455;-80
2021/08/07 07:27:11;;;;;;;2.75;0.60;;;;;;;;;;4968876;28;20034;-80
2021/08/07 07:29:37;;;;;;;2.05;0.70;;;;;;;;;;4977350;28;20124;-80
2021/08/07 07:32:02;;;;;;;2.25;0.68;;;;;;;;;;4993258;28;20053;-80
2021/08/07 07:34:29;;;;;;;1.80;0.63;;;;;;;;;;4986837;28;20033;-80
2021/08/07 07:36:55;;;;;;;2.63;0.85;;;;;;;;;;4960927;28;20543;-80
2021/08/07 07:39:28;;;;;;;1.73;0.70;;;;;;;;;;4978184;28;20416;-80
2021/08/07 07:41:53;;;;;;;1.58;0.68;;;;;;;;;;5009190;28;20041;-80
2021/08/07 07:44:19;;;;;;;1.98;0.60;;;;;;;;;;4993978;28;20114;-79
2021/08/07 07:46:44;;;;;;;2.40;0.82;;;;;;;;;;4993557;28;20042;-79
2021/08/07 07:49:10;;;;;;;1.85;0.85;;;;;;;;;;4991999;28;20416;-79
2021/08/07 07:51:36;;;;;;;1.98;0.90;;;;;;;;;;4993700;28;20176;-79
2021/08/07 07:54:01;;;;;;;2.33;0.70;;;;;;;;;;4974302;28;20061;-79
2021/08/07 07:56:27;;;;;;;1.80;0.70;;;;;;;;;;4977190;28;20434;-79
2021/08/07 07:58:52;;;;;;;3.28;0.95;;;;;;;;;;4993537;28;20034;-79
2021/08/07 08:01:18;;;;;;;2.08;0.90;;;;;;;;;;4991439;28;20416;-80
2021/08/07 08:03:43;;;;;;;2.67;1.00;;;;;;;;;;4977493;28;20091;-80
2021/08/07 08:06:09;;;;;;;4.60;0.80;;;;;;;;;;4973968;28;20130;-79
2021/08/07 08:08:34;;;;;;;3.78;1.02;;;;;;;;;;4990829;28;20064;-79
2021/08/07 08:11:00;;;;;;;2.53;0.80;;;;;;;;;;4992871;28;20089;-80
2021/08/07 08:13:25;;;;;;;3.97;0.88;;;;;;;;;;4974587;28;20038;-79
2021/08/07 08:15:51;;;;;;;5.40;2.00;;;;;;;;;;5006550;28;20038;-80
2021/08/07 08:18:16;;;;;;;7.35;1.15;;;;;;;;;;4988460;28;20034;-80
2021/08/07 08:20:42;;;;;;;7.10;1.83;;;;;;;;;;4973929;28;20412;-80
2021/08/07 08:23:07;;;;;;;4.03;1.13;;;;;;;;;;4982717;28;20046;-79
2021/08/07 08:25:33;;;;;;;4.95;1.20;;;;;;;;;;4984936;28;20042;-80
2021/08/07 08:27:58;;;;;;;4.03;1.10;;;;;;;;;;4993819;28;20042;-80
2021/08/07 08:30:26;;;;;;;4.80;0.95;;;;;;;;;;4967678;28;20042;-80
2021/08/07 08:32:52;;;;;;;2.88;0.93;;;;;;;;;;4990980;28;20031;-80
2021/08/07 08:35:17;;;;;;;5.97;1.13;;;;;;;;;;4981341;28;20185;-80
2021/08/07 08:37:42;;;;;;;4.40;0.93;;;;;;;;;;4974380;28;20504;-80
2021/08/07 08:40:10;;;;;;;6.15;1.20;;;;;;;;;;4986654;28;20042;-79
2021/08/07 08:42:36;;;;;;;2.50;0.95;;;;;;;;;;4979735;28;20026;-80
2021/08/07 08:45:02;;;;;;;5.57;1.05;;;;;;;;;;4981200;28;20064;-80
2021/08/07 08:47:31;;;;;;;2.70;1.20;;;;;;;;;;4996531;28;20034;-80
2021/08/07 08:49:56;;;;;;;5.47;1.13;;;;;;;;;;4995928;28;20034;-80
2021/08/07 08:52:24;;;;;;;4.32;1.10;;;;;;;;;;4993042;28;20044;-80
2021/08/07 08:54:52;;;;;;;4.28;1.00;;;;;;;;;;4995679;28;20037;-80
2021/08/07 08:57:21;;;;;;;6.15;1.42;;;;;;;;;;4986092;28;20124;-79
2021/08/07 08:59:46;;;;;;;3.70;0.90;;;;;;;;;;4981521;28;20092;-80
2021/08/07 09:02:12;;;;;;;4.68;1.50;;;;;;;;;;5011870;28;20060;-80
2021/08/07 09:04:37;;;;;;;5.25;2.38;;;;;;;;;;4962684;28;20036;-79
2021/08/07 09:07:03;;;;;;;6.80;2.85;;;;;;;;;;5000133;28;20041;-79
2021/08/07 09:09:36;;;;;;;5.78;2.55;;;;;;;;;;4995929;28;20050;-80
2021/08/07 09:12:02;;;;;;;6.00;2.28;;;;;;;;;;4963393;28;20042;-80
2021/08/07 09:14:29;;;;;;;6.40;2.08;;;;;;;;;;4980085;28;20037;-80
2021/08/07 09:17:04;;;;;;;5.88;2.78;;;;;;;;;;4995342;28;20042;-81
2021/08/07 09:19:39;;;;;;;7.32;2.67;;;;;;;;;;5027167;28;20030;-80
2021/08/07 09:22:17;;;;;;;7.15;2.13;;;;;;;;;;4995586;28;20049;-80
2021/08/07 09:25:13;;;;;;;6.50;1.83;;;;;;;;;;4980120;28;20042;-80
2021/08/07 09:27:41;;;;;;;3.85;1.52;;;;;;;;;;4984820;28;20523;-80
2021/08/07 09:30:12;;;;;;;4.85;1.60;;;;;;;;;;5011423;28;20081;-80
2021/08/07 09:32:45;;;;;;;3.53;1.40;;;;;;;;;;5011791;28;20104;-80
2021/08/07 09:35:10;;;;;;;;;;;;;;;;;;5011068;28;20036;-80
2021/08/07 09:37:38;;;;;;;4.90;1.35;;;;;;;;;;4992284;28;20012;-80
2021/08/07 09:40:05;;;;;;;5.40;2.35;;;;;;;;;;4990530;28;20030;-80
2021/08/07 09:42:31;;;;;;;9.68;3.75;;;;;;;;;;4996122;28;20527;-80
2021/08/07 09:45:05;;;;;;;7.40;3.42;;;;;;;;;;4996784;28;20034;-80
2021/08/07 09:47:30;;;;;;;6.97;3.22;;;;;;;;;;4995003;28;20144;-80
2021/08/07 09:49:55;;;;;;;6.50;3.25;;;;;;;;;;4995589;28;20037;-82
2021/08/07 09:52:21;;;;;;;6.75;3.00;;;;;;;;;;4978492;28;20035;-81
2021/08/07 09:54:46;;;;;;;7.68;2.80;;;;;;;;;;4968504;28;20041;-80
2021/08/07 09:57:30;;;;;;;6.15;2.53;;;;;;;;;;4976352;28;20062;-80
2021/08/07 09:59:55;;;;;;;8.98;4.50;;;;;;;;;;4976914;28;20069;-80
2021/08/07 10:02:27;;;;;;;7.85;5.00;;;;;;;;;;4994452;28;20033;-81
2021/08/07 10:04:52;;;;;;;8.50;6.43;;;;;;;;;;4968522;28;20132;-80
2021/08/07 10:07:18;;;;;;;7.15;3.90;;;;;;;;;;4995001;28;20030;-80
2021/08/07 10:09:43;;;;;;;6.90;3.38;;;;;;;;;;5011632;28;20088;-80
2021/08/07 10:12:10;;;;;;;20.52;3.80;;;;;;;;;;4992699;28;20030;-81
2021/08/07 10:14:36;;;;;;;10.50;3.22;;;;;;;;;;4976700;28;20080;-81
2021/08/07 10:17:02;;;;;;;5.93;2.35;;;;;;;;;;4973941;28;20485;-80
2021/08/07 10:19:28;;;;;;;5.55;2.20;;;;;;;;;;5008263;28;20493;-82
2021/08/07 10:21:53;;;;;;;7.75;1.80;;;;;;;;;;4992834;28;20045;-81
2021/08/07 10:24:19;;;;;;;4.32;1.85;;;;;;;;;;5008878;28;20029;-81
2021/08/07 10:26:47;;;;;;;4.80;1.80;;;;;;;;;;4995350;28;20030;-81
2021/08/07 10:29:13;;;;;;;4.70;2.00;;;;;;;;;;4962770;28;20048;-82
2021/08/07 10:31:38;;;;;;;6.15;1.85;;;;;;;;;;4994906;28;20033;-83
2021/08/07 10:34:05;;;;;;;5.22;1.42;;;;;;;;;;4994371;28;20041;-82
2021/08/07 10:36:31;;;;;;;4.35;1.20;;;;;;;;;;4979360;28;20034;-82
2021/08/07 10:38:58;;;;;;;6.38;1.60;;;;;;;;;;4963318;28;20519;-84
2021/08/07 10:41:27;;;;;;;6.50;1.38;;;;;;;;;;4979945;28;20026;-83
2021/08/07 10:43:56;;;;;;;3.28;1.00;;;;;;;;;;4995757;28;20037;-84
2021/08/07 10:46:21;;;;;;;3.30;1.38;;;;;;;;;;4994423;28;20033;-82
2021/08/07 10:48:48;;;;;;;3.13;1.23;;;;;;;;;;4991162;28;20042;-81
2021/08/07 10:51:22;;;;;;;2.78;0.98;;;;;;;;;;4989561;28;20038;-82
2021/08/07 10:53:52;;;;;;;4.43;0.90;;;;;;;;;;5011348;28;20405;-82
2021/08/07 10:56:34;;;;;;;3.28;0.95;;;;;;;;;;4957456;28;20424;-82
2021/08/07 10:59:12;;;;;;;3.67;0.80;;;;;;;;;;5000950;28;20519;-83
2021/08/07 11:01:41;;;;;;;4.65;1.13;;;;;;;;;;5011745;28;20056;-83
2021/08/07 11:04:21;;;;;;;3.10;1.15;;;;;;;;;;4994656;28;20105;-83
2021/08/07 11:06:49;;;;;;;3.60;1.00;;;;;;;;;;4993663;28;20460;-83
2021/08/07 11:09:16;;;;;;;3.70;0.65;;;;;;;;;;4994680;28;20057;-83
2021/08/07 11:11:41;;;;;;;5.13;0.80;;;;;;;;;;5011029;28;20109;-83
2021/08/07 11:14:25;;;;;;;1.35;0.40;;;;;;;;;;4994121;28;20069;-83
2021/08/07 11:17:03;;;;;;;2.08;0.52;;;;;;;;;;5010798;28;20045;-82
2021/08/07 11:19:48;;;;;;;3.53;0.65;;;;;;;;;;5009634;28;20540;-83
2021/08/07 11:22:17;;;;;;;2.67;0.40;;;;;;;;;;5010551;28;20101;-83
2021/08/07 11:24:43;;;;;;;2.53;0.63;;;;;;;;;;4993412;28;20099;-82
2021/08/07 11:27:09;;;;;;;5.82;1.13;;;;;;;;;;4992696;28;20042;-82
2021/08/07 11:29:34;;;;;;;3.13;1.02;;;;;;;;;;4993366;28;20063;-82
2021/08/07 11:32:15;;;;;;;5.85;0.73;;;;;;;;;;4993740;28;20446;-84
2021/08/07 11:34:49;;;;;;;3.58;0.98;;;;;;;;;;4983070;28;20038;-84
2021/08/07 11:37:18;;;;;;;2.35;0.50;;;;;;;;;;4977180;28;20034;-84
2021/08/07 11:40:07;;;;;;;6.75;1.45;;;;;;;;;;4978765;28;20056;-84
2021/08/07 11:42:44;;;;;;;1.65;0.63;;;;;;;;;;5010877;28;20080;-83
2021/08/07 11:45:15;;;;;;;2.53;0.50;;;;;;;;;;4989644;28;20057;-84
2021/08/07 11:47:45;;;;;;;4.07;1.50;;;;;;;;;;4974574;28;20030;-82
2021/08/07 11:50:19;;;;;;;2.92;0.60;;;;;;;;;;4989344;28;20416;-83
2021/08/07 11:52:44;;;;;;;2.70;0.60;;;;;;;;;;5010703;28;20069;-83
2021/08/07 11:55:10;;;;;;;4.57;0.70;;;;;;;;;;4995224;28;20084;-83
2021/08/07 11:57:35;;;;;;;4.70;1.13;;;;;;;;;;4974949;28;20109;-84
2021/08/07 12:00:20;;;;;;;3.00;0.70;;;;;;;;;;4975151;28;20034;-83
2021/08/07 12:03:21;;;;;;;4.22;1.52;;;;;;;;;;4973836;28;20034;-83
2021/08/07 12:05:56;;;;;;;4.80;1.60;;;;;;;;;;4915494;29;20261;-84
2021/08/07 12:08:25;;;;;;;3.80;1.75;;;;;;;;;;4997454;28;20061;-86
2021/08/07 12:11:00;;;;;;;3.10;1.30;;;;;;;;;;4994418;28;20129;-85
2021/08/07 12:13:28;;;;;;;4.38;1.30;;;;;;;;;;5009227;28;20417;-85
2021/08/07 12:15:56;;;;;;;3.63;1.17;;;;;;;;;;4994431;28;20052;-86
2021/08/07 12:18:23;;;;;;;2.53;1.15;;;;;;;;;;5014315;28;20553;-87
2021/08/07 12:20:48;;;;;;;3.97;1.30;;;;;;;;;;4998001;28;20451;-84
2021/08/07 12:23:14;;;;;;;3.58;1.23;;;;;;;;;;4980944;28;20069;-84
2021/08/07 12:25:41;;;;;;;3.60;1.05;;;;;;;;;;4997942;28;20056;-87
2021/08/07 12:28:12;;;;;;;4.28;0.90;;;;;;;;;;4979092;28;20186;-85
2021/08/07 12:31:03;;;;;;;3.33;0.93;;;;;;;;;;5005882;28;20041;-87
2021/08/07 12:33:33;;;;;;;5.80;1.08;;;;;;;;;;5012091;28;20503;-85
2021/08/07 12:35:58;;;;;;;5.80;1.35;;;;;;;;;;4978302;28;20030;-84
2021/08/07 12:38:27;;;;;;;4.45;1.30;;;;;;;;;;4995077;28;20046;-84
2021/08/07 12:40:57;;;;;;;3.42;0.90;;;;;;;;;;4997140;28;20511;-84
2021/08/07 12:43:30;;;;;;;5.03;1.05;;;;;;;;;;4997593;28;20037;-84
2021/08/07 12:46:00;;;;;;;2.75;0.95;;;;;;;;;;4998366;28;20117;-86
2021/08/07 12:48:43;;;;;;;5.07;0.82;;;;;;;;;;4998252;28;20523;-85
2021/08/07 12:51:10;;;;;;;3.03;0.70;;;;;;;;;;5000251;28;20034;-85
2021/08/07 12:53:40;;;;;;;3.45;0.70;;;;;;;;;;4997789;28;20508;-85
2021/08/07 12:56:06;;;;;;;2.67;0.88;;;;;;;;;;4997355;28;20029;-85
2021/08/07 12:58:33;;;;;;;2.05;0.63;;;;;;;;;;4997887;28;20040;-85
2021/08/07 13:01:11;;;;;;;2.47;0.68;;;;;;;;;;4981508;28;20044;-85
2021/08/07 13:03:58;;;;;;;4.50;1.08;;;;;;;;;;4997561;28;20416;-85
2021/08/07 13:06:24;;;;;;;3.47;0.85;;;;;;;;;;4981185;28;20034;-85
2021/08/07 13:08:50;;;;;;;2.08;0.77;;;;;;;;;;4997349;28;20048;-85
2021/08/07 13:11:22;;;;;;;1.95;0.60;;;;;;;;;;4981268;28;20712;-85
2021/08/07 13:13:50;;;;;;;;;;;;;;;;;;4981605;28;20041;-84
2021/08/07 13:16:37;;;;;;;2.20;0.68;;;;;;;;;;4974826;28;20416;-85
2021/08/07 13:19:24;;;;;;;2.40;0.60;;;;;;;;;;4977365;28;20049;-85
2021/08/07 13:21:52;;;;;;;3.22;0.70;;;;;;;;;;4994167;28;20035;-85
2021/08/07 13:24:51;;;;;;;1.83;0.50;;;;;;;;;;4961867;28;20042;-85
2021/08/07 13:27:16;;;;;;;3.50;0.95;;;;;;;;;;4977328;28;20042;-85
2021/08/07 13:29:42;;;;;;;2.80;0.73;;;;;;;;;;4960768;28;20057;-85
2021/08/07 13:32:19;;;;;;;3.92;0.77;;;;;;;;;;4977489;28;20049;-85
2021/08/07 13:34:45;;;;;;;2.50;0.77;;;;;;;;;;4978025;28;20081;-85
2021/08/07 13:37:11;;;;;;;2.83;0.60;;;;;;;;;;4961186;28;20046;-85
2021/08/07 13:39:38;;;;;;;1.85;0.47;;;;;;;;;;4977280;28;20092;-85
2021/08/07 13:42:05;;;;;;;1.85;0.50;;;;;;;;;;4961523;28;20080;-84
2021/08/07 13:44:34;;;;;;;3.22;0.65;;;;;;;;;;4977638;28;20382;-85
2021/08/07 13:47:01;;;;;;;3.22;1.27;;;;;;;;;;4986592;28;20092;-85
2021/08/07 13:49:27;;;;;;;3.05;0.80;;;;;;;;;;4996230;28;20532;-85
2021/08/07 13:51:52;;;;;;;2.08;0.65;;;;;;;;;;5013172;28;20060;-85
2021/08/07 13:54:18;;;;;;;2.95;0.40;;;;;;;;;;5004111;28;20610;-85
2021/08/07 13:56:43;;;;;;;1.45;0.70;;;;;;;;;;4983667;28;20035;-85
2021/08/07 13:59:09;;;;;;;1.20;0.40;;;;;;;;;;4999886;28;20045;-84
2021/08/07 14:01:34;;;;;;;2.15;0.55;;;;;;;;;;5016070;28;20084;-85
2021/08/07 14:04:00;;;;;;;2.25;0.40;;;;;;;;;;5015885;28;20116;-85
2021/08/07 14:06:25;;;;;;;3.78;0.88;;;;;;;;;;4999479;28;20044;-84
2021/08/07 14:08:50;;;;;;;3.08;0.47;;;;;;;;;;4982948;28;20072;-85
2021/08/07 14:11:17;;;;;;;1.85;0.45;;;;;;;;;;4968371;28;20040;-85
2021/08/07 14:13:43;;;;;;;5.60;0.80;;;;;;;;;;4980315;28;20092;-85
2021/08/07 14:16:09;;;;;;;1.73;0.40;;;;;;;;;;4980367;28;20077;-85
2021/08/07 14:18:35;;;;;;;2.30;0.50;;;;;;;;;;4979744;28;20381;-85
2021/08/07 14:21:01;;;;;;;1.95;0.45;;;;;;;;;;4979969;28;20032;-85
2021/08/07 14:23:27;;;;;;;2.05;0.52;;;;;;;;;;4979474;28;20038;-85
2021/08/07 14:25:53;;;;;;;1.50;0.47;;;;;;;;;;4979945;28;20038;-85
2021/08/07 14:28:18;;;;;;;1.45;0.40;;;;;;;;;;4980073;28;20038;-84
2021/08/07 14:30:44;;;;;;;2.08;0.57;;;;;;;;;;4979720;28;20041;-85
2021/08/07 14:33:10;;;;;;;2.35;0.40;;;;;;;;;;4996057;28;20103;-84
2021/08/07 14:35:36;;;;;;;2.50;0.57;;;;;;;;;;4963637;28;20042;-85
2021/08/07 14:38:01;;;;;;;1.30;0.52;;;;;;;;;;4963535;28;20038;-85
2021/08/07 14:40:28;;;;;;;1.83;0.70;;;;;;;;;;4995516;28;20038;-85
2021/08/07 14:42:53;;;;;;;2.63;0.60;;;;;;;;;;4995800;28;20072;-85
2021/08/07 14:45:19;;;;;;;1.88;0.68;;;;;;;;;;4963275;28;20124;-85